sensor_id;sensor_type;location;lat;lon;timestamp;pressure;altitude;pressure_sealevel;temperature;humidity
66945;BME280;53853;51.982;5.928;2023-02-10T00:02:02;103441.69;;;4.77;78.12
66945;BME280;53853;51.982;5.928;2023-02-10T00:04:34;103447.00;;;4.76;78.17
66945;BME280;53853;51.982;5.928;2023-02-10T00:07:04;103446.16;;;4.75;78.11
66945;BME280;53853;51.982;5.928;2023-02-10T00:09:34;103455.97;;;4.71;78.32
66945;BME280;53853;51.982;5.928;2023-02-10T00:12:05;103449.78;;;4.71;78.34
66945;BME280;53853;51.982;5.928;2023-02-10T00:14:36;103449.78;;;4.71;78.23
66945;BME280;53853;51.982;5.928;2023-02-10T00:17:06;103449.91;;;4.68;78.15
66945;BME280;53853;51.982;5.928;2023-02-10T00:19:39;103451.78;;;4.64;78.39
66945;BME280;53853;51.982;5.928;2023-02-10T00:22:09;103445.69;;;4.62;78.40
66945;BME280;53853;51.982;5.928;2023-02-10T00:24:39;103449.34;;;4.57;78.77
66945;BME280;53853;51.982;5.928;2023-02-10T00:27:09;103451.16;;;4.56;78.92
66945;BME280;53853;51.982;5.928;2023-02-10T00:29:38;103457.38;;;4.53;78.64
66945;BME280;53853;51.982;5.928;2023-02-10T00:32:08;103456.69;;;4.47;78.82
66945;BME280;53853;51.982;5.928;2023-02-10T00:34:43;103460.19;;;4.49;79.15
66945;BME280;53853;51.982;5.928;2023-02-10T00:37:13;103461.88;;;4.50;79.21
66945;BME280;53853;51.982;5.928;2023-02-10T00:39:43;103464.34;;;4.56;78.91
66945;BME280;53853;51.982;5.928;2023-02-10T00:42:13;103463.63;;;4.51;79.42
66945;BME280;53853;51.982;5.928;2023-02-10T00:44:43;103455.66;;;4.52;79.35
66945;BME280;53853;51.982;5.928;2023-02-10T00:47:13;103465.41;;;4.50;79.35
66945;BME280;53853;51.982;5.928;2023-02-10T00:49:45;103465.41;;;4.50;79.04
66945;BME280;53853;51.982;5.928;2023-02-10T00:52:15;103464.53;;;4.50;79.40
66945;BME280;53853;51.982;5.928;2023-02-10T00:54:46;103467.06;;;4.53;79.15
66945;BME280;53853;51.982;5.928;2023-02-10T00:57:16;103468.88;;;4.52;79.21
66945;BME280;53853;51.982;5.928;2023-02-10T00:59:47;103461.72;;;4.56;78.59
66945;BME280;53853;51.982;5.928;2023-02-10T01:02:17;103467.97;;;4.52;78.88
66945;BME280;53853;51.982;5.928;2023-02-10T01:04:49;103473.38;;;4.49;79.22
66945;BME280;53853;51.982;5.928;2023-02-10T01:07:19;103479.44;;;4.52;78.85
66945;BME280;53853;51.982;5.928;2023-02-10T01:09:49;103478.69;;;4.47;78.92
66945;BME280;53853;51.982;5.928;2023-02-10T01:12:19;103483.00;;;4.50;78.55
66945;BME280;53853;51.982;5.928;2023-02-10T01:14:49;103481.34;;;4.47;78.95
66945;BME280;53853;51.982;5.928;2023-02-10T01:17:19;103487.56;;;4.45;79.62
66945;BME280;53853;51.982;5.928;2023-02-10T01:19:52;103485.69;;;4.48;79.43
66945;BME280;53853;51.982;5.928;2023-02-10T01:22:22;103489.25;;;4.47;79.29
66945;BME280;53853;51.982;5.928;2023-02-10T01:24:52;103489.59;;;4.35;79.01
66945;BME280;53853;51.982;5.928;2023-02-10T01:27:22;103494.13;;;4.31;79.07
66945;BME280;53853;51.982;5.928;2023-02-10T01:29:52;103485.22;;;4.34;79.09
66945;BME280;53853;51.982;5.928;2023-02-10T01:32:22;103486.84;;;4.40;78.84
66945;BME280;53853;51.982;5.928;2023-02-10T01:34:55;103486.94;;;4.37;78.67
66945;BME280;53853;51.982;5.928;2023-02-10T01:37:25;103487.00;;;4.33;78.42
66945;BME280;53853;51.982;5.928;2023-02-10T01:39:55;103486.19;;;4.31;78.62
66945;BME280;53853;51.982;5.928;2023-02-10T01:42:27;103479.13;;;4.32;78.62
66945;BME280;53853;51.982;5.928;2023-02-10T01:45:22;103476.38;;;4.37;78.11
66945;BME280;53853;51.982;5.928;2023-02-10T01:47:55;103469.44;;;4.32;78.60
66945;BME280;53853;51.982;5.928;2023-02-10T01:50:30;103465.97;;;4.30;79.21
66945;BME280;53853;51.982;5.928;2023-02-10T01:53:01;103471.22;;;4.32;79.36
66945;BME280;53853;51.982;5.928;2023-02-10T01:55:32;103475.56;;;4.33;78.75
66945;BME280;53853;51.982;5.928;2023-02-10T01:58:05;103470.28;;;4.33;78.57
66945;BME280;53853;51.982;5.928;2023-02-10T02:00:36;103477.31;;;4.34;78.89
66945;BME280;53853;51.982;5.928;2023-02-10T02:03:06;103487.16;;;4.29;78.65
66945;BME280;53853;51.982;5.928;2023-02-10T02:05:40;103489.00;;;4.25;79.01
66945;BME280;53853;51.982;5.928;2023-02-10T02:08:15;103483.72;;;4.25;78.98
66945;BME280;53853;51.982;5.928;2023-02-10T02:11:01;103487.31;;;4.23;78.48
66945;BME280;53853;51.982;5.928;2023-02-10T02:13:42;103488.09;;;4.26;78.32
66945;BME280;53853;51.982;5.928;2023-02-10T02:16:22;103495.28;;;4.21;78.11
66945;BME280;53853;51.982;5.928;2023-02-10T02:19:02;103490.97;;;4.17;78.54
66945;BME280;53853;51.982;5.928;2023-02-10T02:25:15;103498.00;;;4.18;79.05
66945;BME280;53853;51.982;5.928;2023-02-10T02:28:01;103490.00;;;4.21;78.41
66945;BME280;53853;51.982;5.928;2023-02-10T02:33:35;103488.34;;;4.17;78.38
66945;BME280;53853;51.982;5.928;2023-02-10T02:36:09;103491.06;;;4.14;78.62
66945;BME280;53853;51.982;5.928;2023-02-10T02:38:42;103482.16;;;4.18;78.59
66945;BME280;53853;51.982;5.928;2023-02-10T02:41:12;103491.00;;;4.15;78.49
66945;BME280;53853;51.982;5.928;2023-02-10T02:43:42;103495.44;;;4.15;78.53
66945;BME280;53853;51.982;5.928;2023-02-10T02:46:19;103491.06;;;4.14;78.15
66945;BME280;53853;51.982;5.928;2023-02-10T02:49:00;103490.28;;;4.10;77.94
66945;BME280;53853;51.982;5.928;2023-02-10T02:51:39;103486.13;;;4.02;77.86
66945;BME280;53853;51.982;5.928;2023-02-10T02:54:18;103483.66;;;3.95;77.85
66945;BME280;53853;51.982;5.928;2023-02-10T02:56:55;103489.88;;;3.93;77.72
66945;BME280;53853;51.982;5.928;2023-02-10T02:59:32;103492.59;;;3.90;78.23
66945;BME280;53853;51.982;5.928;2023-02-10T03:02:05;103508.38;;;3.91;78.22
66945;BME280;53853;51.982;5.928;2023-02-10T03:04:40;103496.25;;;3.86;78.82
66945;BME280;53853;51.982;5.928;2023-02-10T03:07:10;103505.00;;;3.86;78.83
66945;BME280;53853;51.982;5.928;2023-02-10T03:09:42;103499.81;;;3.83;79.21
66945;BME280;53853;51.982;5.928;2023-02-10T03:12:12;103500.72;;;3.82;79.31
66945;BME280;53853;51.982;5.928;2023-02-10T03:14:42;103499.78;;;3.85;79.04
66945;BME280;53853;51.982;5.928;2023-02-10T03:17:12;103499.00;;;3.81;78.93
66945;BME280;53853;51.982;5.928;2023-02-10T03:19:44;103504.22;;;3.83;78.83
66945;BME280;53853;51.982;5.928;2023-02-10T03:22:14;103506.88;;;3.83;78.36
66945;BME280;53853;51.982;5.928;2023-02-10T03:24:44;103505.94;;;3.84;78.08
66945;BME280;53853;51.982;5.928;2023-02-10T03:27:14;103507.00;;;3.78;77.79
66945;BME280;53853;51.982;5.928;2023-02-10T03:29:44;103509.75;;;3.73;78.09
66945;BME280;53853;51.982;5.928;2023-02-10T03:32:16;103508.97;;;3.70;78.58
66945;BME280;53853;51.982;5.928;2023-02-10T03:34:49;103511.69;;;3.67;78.50
66945;BME280;53853;51.982;5.928;2023-02-10T03:37:19;103506.47;;;3.63;78.80
66945;BME280;53853;51.982;5.928;2023-02-10T03:39:48;103511.78;;;3.62;78.78
66945;BME280;53853;51.982;5.928;2023-02-10T03:42:18;103512.66;;;3.62;78.53
66945;BME280;53853;51.982;5.928;2023-02-10T03:44:48;103508.25;;;3.61;78.59
66945;BME280;53853;51.982;5.928;2023-02-10T03:47:18;103503.91;;;3.60;78.47
66945;BME280;53853;51.982;5.928;2023-02-10T03:49:50;103512.75;;;3.58;78.48
66945;BME280;53853;51.982;5.928;2023-02-10T03:52:20;103510.97;;;3.58;78.05
66945;BME280;53853;51.982;5.928;2023-02-10T03:54:50;103506.78;;;3.51;78.28
66945;BME280;53853;51.982;5.928;2023-02-10T03:57:20;103506.81;;;3.50;78.38
66945;BME280;53853;51.982;5.928;2023-02-10T03:59:50;103510.34;;;3.49;78.55
66945;BME280;53853;51.982;5.928;2023-02-10T04:02:20;103506.00;;;3.48;78.64
66945;BME280;53853;51.982;5.928;2023-02-10T04:04:52;103507.75;;;3.47;78.48
66945;BME280;53853;51.982;5.928;2023-02-10T04:07:22;103498.19;;;3.43;78.70
66945;BME280;53853;51.982;5.928;2023-02-10T04:09:52;103501.72;;;3.42;78.43
66945;BME280;53853;51.982;5.928;2023-02-10T04:12:22;103502.66;;;3.39;78.33
66945;BME280;53853;51.982;5.928;2023-02-10T04:14:52;103513.28;;;3.38;78.40
66945;BME280;53853;51.982;5.928;2023-02-10T04:17:22;103508.00;;;3.38;78.18
66945;BME280;53853;51.982;5.928;2023-02-10T04:19:54;103517.63;;;3.39;77.67
66945;BME280;53853;51.982;5.928;2023-02-10T04:22:24;103508.97;;;3.34;78.02
66945;BME280;53853;51.982;5.928;2023-02-10T04:24:54;103513.44;;;3.30;78.42
66945;BME280;53853;51.982;5.928;2023-02-10T04:27:24;103515.22;;;3.28;77.99
66945;BME280;53853;51.982;5.928;2023-02-10T04:29:53;103517.94;;;3.25;78.09
66945;BME280;53853;51.982;5.928;2023-02-10T04:32:23;103516.25;;;3.22;77.85
66945;BME280;53853;51.982;5.928;2023-02-10T04:34:56;103513.63;;;3.22;77.85
66945;BME280;53853;51.982;5.928;2023-02-10T04:37:26;103516.22;;;3.24;77.54
66945;BME280;53853;51.982;5.928;2023-02-10T04:39:56;103522.44;;;3.20;77.34
66945;BME280;53853;51.982;5.928;2023-02-10T04:42:25;103526.03;;;3.17;77.31
66945;BME280;53853;51.982;5.928;2023-02-10T04:44:59;103523.50;;;3.13;77.46
66945;BME280;53853;51.982;5.928;2023-02-10T04:47:29;103530.53;;;3.12;77.33
66945;BME280;53853;51.982;5.928;2023-02-10T04:50:01;103527.97;;;3.09;77.40
66945;BME280;53853;51.982;5.928;2023-02-10T04:52:31;103526.31;;;3.05;77.78
66945;BME280;53853;51.982;5.928;2023-02-10T04:55:01;103522.78;;;3.04;77.85
66945;BME280;53853;51.982;5.928;2023-02-10T04:57:31;103532.47;;;3.04;77.62
66945;BME280;53853;51.982;5.928;2023-02-10T05:00:01;103531.75;;;2.97;77.71
66945;BME280;53853;51.982;5.928;2023-02-10T05:02:31;103537.03;;;2.97;77.68
66945;BME280;53853;51.982;5.928;2023-02-10T05:05:04;103534.41;;;2.96;78.14
66945;BME280;53853;51.982;5.928;2023-02-10T05:07:34;103539.78;;;2.91;77.84
66945;BME280;53853;51.982;5.928;2023-02-10T05:10:05;103544.22;;;2.89;78.06
66945;BME280;53853;51.982;5.928;2023-02-10T05:12:35;103537.28;;;2.85;78.29
66945;BME280;53853;51.982;5.928;2023-02-10T05:15:05;103539.09;;;2.83;78.69
66945;BME280;53853;51.982;5.928;2023-02-10T05:17:35;103533.94;;;2.77;78.72
66945;BME280;53853;51.982;5.928;2023-02-10T05:20:09;103526.06;;;2.75;79.16
66945;BME280;53853;51.982;5.928;2023-02-10T05:22:39;103531.28;;;2.78;78.44
66945;BME280;53853;51.982;5.928;2023-02-10T05:25:09;103534.03;;;2.72;79.12
66945;BME280;53853;51.982;5.928;2023-02-10T05:27:39;103535.84;;;2.70;79.35
66945;BME280;53853;51.982;5.928;2023-02-10T05:30:11;103534.03;;;2.72;79.44
66945;BME280;53853;51.982;5.928;2023-02-10T05:32:42;103533.22;;;2.70;79.45
66945;BME280;53853;51.982;5.928;2023-02-10T05:35:15;103539.28;;;2.74;79.51
66945;BME280;53853;51.982;5.928;2023-02-10T05:37:45;103534.94;;;2.71;79.71
66945;BME280;53853;51.982;5.928;2023-02-10T05:40:15;103533.19;;;2.71;79.75
66945;BME280;53853;51.982;5.928;2023-02-10T05:42:45;103541.06;;;2.73;79.71
66945;BME280;53853;51.982;5.928;2023-02-10T05:45:15;103537.53;;;2.72;79.52
66945;BME280;53853;51.982;5.928;2023-02-10T05:47:45;103539.28;;;2.74;79.48
66945;BME280;53853;51.982;5.928;2023-02-10T05:50:17;103534.00;;;2.74;79.51
66945;BME280;53853;51.982;5.928;2023-02-10T05:52:47;103532.25;;;2.72;79.51
66945;BME280;53853;51.982;5.928;2023-02-10T05:55:17;103540.13;;;2.74;79.27
66945;BME280;53853;51.982;5.928;2023-02-10T05:57:48;103544.50;;;2.75;78.82
66945;BME280;53853;51.982;5.928;2023-02-10T06:00:18;103542.78;;;2.72;79.00
66945;BME280;53853;51.982;5.928;2023-02-10T06:02:48;103546.38;;;2.70;79.27
66945;BME280;53853;51.982;5.928;2023-02-10T06:05:21;103534.09;;;2.69;79.76
66945;BME280;53853;51.982;5.928;2023-02-10T06:07:51;103538.47;;;2.70;79.62
66945;BME280;53853;51.982;5.928;2023-02-10T06:10:21;103542.00;;;2.69;79.80
66945;BME280;53853;51.982;5.928;2023-02-10T06:12:51;103535.84;;;2.70;79.72
66945;BME280;53853;51.982;5.928;2023-02-10T06:15:21;103540.19;;;2.71;79.82
66945;BME280;53853;51.982;5.928;2023-02-10T06:17:51;103533.09;;;2.76;79.33
66945;BME280;53853;51.982;5.928;2023-02-10T06:20:24;103526.03;;;2.77;79.12
66945;BME280;53853;51.982;5.928;2023-02-10T06:22:53;103536.63;;;2.75;79.33
66945;BME280;53853;51.982;5.928;2023-02-10T06:25:23;103530.47;;;2.76;79.36
66945;BME280;53853;51.982;5.928;2023-02-10T06:27:53;103529.53;;;2.77;79.24
66945;BME280;53853;51.982;5.928;2023-02-10T06:30:23;103535.72;;;2.76;79.22
66945;BME280;53853;51.982;5.928;2023-02-10T06:32:53;103533.09;;;2.76;79.17
66945;BME280;53853;51.982;5.928;2023-02-10T06:35:26;103535.72;;;2.76;79.14
66945;BME280;53853;51.982;5.928;2023-02-10T06:37:56;103534.88;;;2.74;79.38
66945;BME280;53853;51.982;5.928;2023-02-10T06:40:26;103536.63;;;2.75;79.14
66945;BME280;53853;51.982;5.928;2023-02-10T06:42:55;103545.31;;;2.79;78.61
66945;BME280;53853;51.982;5.928;2023-02-10T06:45:25;103544.38;;;2.81;78.51
66945;BME280;53853;51.982;5.928;2023-02-10T06:47:55;103547.91;;;2.80;78.66
66945;BME280;53853;51.982;5.928;2023-02-10T06:50:28;103551.38;;;2.82;78.82
66945;BME280;53853;51.982;5.928;2023-02-10T06:52:58;103553.97;;;2.84;79.02
66945;BME280;53853;51.982;5.928;2023-02-10T06:55:28;103557.41;;;2.89;78.85
66945;BME280;53853;51.982;5.928;2023-02-10T06:57:59;103551.16;;;2.93;78.53
66945;BME280;53853;51.982;5.928;2023-02-10T07:00:29;103551.06;;;2.96;78.52
66945;BME280;53853;51.982;5.928;2023-02-10T07:03:00;103559.88;;;2.97;79.00
66945;BME280;53853;51.982;5.928;2023-02-10T07:05:33;103565.06;;;3.00;79.15
66945;BME280;53853;51.982;5.928;2023-02-10T07:08:03;103554.34;;;3.07;78.60
66945;BME280;53853;51.982;5.928;2023-02-10T07:10:33;103558.69;;;3.10;78.25
66945;BME280;53853;51.982;5.928;2023-02-10T07:13:03;103558.63;;;3.13;77.99
66945;BME280;53853;51.982;5.928;2023-02-10T07:15:33;103561.31;;;3.10;78.15
66945;BME280;53853;51.982;5.928;2023-02-10T07:18:03;103561.25;;;3.13;78.06
66945;BME280;53853;51.982;5.928;2023-02-10T07:20:35;103563.84;;;3.15;77.97
66945;BME280;53853;51.982;5.928;2023-02-10T07:23:05;103561.25;;;3.13;78.28
66945;BME280;53853;51.982;5.928;2023-02-10T07:25:35;103557.81;;;3.11;78.16
66945;BME280;53853;51.982;5.928;2023-02-10T07:28:05;103557.81;;;3.11;78.11
66945;BME280;53853;51.982;5.928;2023-02-10T07:30:35;103560.41;;;3.13;78.15
66945;BME280;53853;51.982;5.928;2023-02-10T07:33:05;103559.56;;;3.09;78.05
66945;BME280;53853;51.982;5.928;2023-02-10T07:35:37;103571.16;;;3.02;78.17
66945;BME280;53853;51.982;5.928;2023-02-10T07:38:07;103570.19;;;3.06;78.38
66945;BME280;53853;51.982;5.928;2023-02-10T07:40:37;103574.69;;;3.01;78.25
66945;BME280;53853;51.982;5.928;2023-02-10T07:43:07;103571.16;;;3.02;78.32
66945;BME280;53853;51.982;5.928;2023-02-10T07:45:45;103577.22;;;3.05;78.31
66945;BME280;53853;51.982;5.928;2023-02-10T07:48:17;103582.59;;;3.01;78.44
66945;BME280;53853;51.982;5.928;2023-02-10T07:50:50;103585.25;;;2.99;78.63
66945;BME280;53853;51.982;5.928;2023-02-10T07:53:21;103580.06;;;2.96;78.74
66945;BME280;53853;51.982;5.928;2023-02-10T07:55:51;103587.03;;;2.99;78.76
66945;BME280;53853;51.982;5.928;2023-02-10T07:58:21;103592.19;;;3.05;78.66
66945;BME280;53853;51.982;5.928;2023-02-10T08:00:51;103592.06;;;3.11;78.88
66945;BME280;53853;51.982;5.928;2023-02-10T08:03:21;103602.69;;;3.06;78.60
66945;BME280;53853;51.982;5.928;2023-02-10T08:05:53;103599.13;;;3.07;78.59
66945;BME280;53853;51.982;5.928;2023-02-10T08:08:23;103610.34;;;3.19;78.95
66945;BME280;53853;51.982;5.928;2023-02-10T08:10:53;103597.81;;;3.29;78.37
66945;BME280;53853;51.982;5.928;2023-02-10T08:13:23;103611.72;;;3.35;77.93
66945;BME280;53853;51.982;5.928;2023-02-10T08:15:54;103616.22;;;3.30;77.62
66945;BME280;53853;51.982;5.928;2023-02-10T08:18:24;103624.03;;;3.35;77.63
66945;BME280;53853;51.982;5.928;2023-02-10T08:20:59;103630.13;;;3.37;77.53
66945;BME280;53853;51.982;5.928;2023-02-10T08:23:30;103630.06;;;3.40;77.59
66945;BME280;53853;51.982;5.928;2023-02-10T08:26:03;103634.63;;;3.33;77.81
66945;BME280;53853;51.982;5.928;2023-02-10T08:28:35;103638.03;;;3.37;77.51
66945;BME280;53853;51.982;5.928;2023-02-10T08:31:07;103645.06;;;3.38;77.15
66945;BME280;53853;51.982;5.928;2023-02-10T08:33:38;103630.06;;;3.40;76.91
66945;BME280;53853;51.982;5.928;2023-02-10T08:36:13;103622.06;;;3.44;77.23
66945;BME280;53853;51.982;5.928;2023-02-10T08:38:43;103613.22;;;3.45;77.08
66945;BME280;53853;51.982;5.928;2023-02-10T08:41:13;103611.59;;;3.41;nan
66945;BME280;53853;51.982;5.928;2023-02-10T08:43:43;103612.41;;;3.43;76.78
66945;BME280;53853;51.982;5.928;2023-02-10T08:46:13;103623.75;;;3.47;76.63
66945;BME280;53853;51.982;5.928;2023-02-10T08:48:43;103614.06;;;3.49;76.30
66945;BME280;53853;51.982;5.928;2023-02-10T08:51:16;103613.91;;;3.55;76.46
66945;BME280;53853;51.982;5.928;2023-02-10T08:53:46;103614.13;;;3.46;77.20
66945;BME280;53853;51.982;5.928;2023-02-10T08:56:17;103615.63;;;3.56;77.03
66945;BME280;53853;51.982;5.928;2023-02-10T08:58:47;103618.28;;;3.55;76.82
66945;BME280;53853;51.982;5.928;2023-02-10T09:01:19;103617.34;;;3.59;77.28
66945;BME280;53853;51.982;5.928;2023-02-10T09:03:49;103625.06;;;3.67;76.77
66945;BME280;53853;51.982;5.928;2023-02-10T09:06:24;103635.56;;;3.70;77.06
66945;BME280;53853;51.982;5.928;2023-02-10T09:08:57;103621.38;;;3.74;76.73
66945;BME280;53853;51.982;5.928;2023-02-10T09:11:27;103620.34;;;3.81;76.57
66945;BME280;53853;51.982;5.928;2023-02-10T09:13:57;103632.47;;;3.88;76.34
66945;BME280;53853;51.982;5.928;2023-02-10T09:16:27;103628.06;;;3.89;76.35
66945;BME280;53853;51.982;5.928;2023-02-10T09:18:57;103630.88;;;3.81;76.77
66945;BME280;53853;51.982;5.928;2023-02-10T09:21:30;103628.03;;;3.90;76.37
66945;BME280;53853;51.982;5.928;2023-02-10T09:24:00;103633.28;;;3.92;75.90
66945;BME280;53853;51.982;5.928;2023-02-10T09:26:30;103634.13;;;3.92;76.52
66945;BME280;53853;51.982;5.928;2023-02-10T09:29:00;103635.66;;;4.01;76.58
66945;BME280;53853;51.982;5.928;2023-02-10T09:31:30;103629.47;;;4.02;76.36
66945;BME280;53853;51.982;5.928;2023-02-10T09:34:00;103624.28;;;3.99;76.20
66945;BME280;53853;51.982;5.928;2023-02-10T09:36:33;103627.03;;;3.94;76.22
66945;BME280;53853;51.982;5.928;2023-02-10T09:39:03;103628.69;;;3.98;76.58
66945;BME280;53853;51.982;5.928;2023-02-10T09:41:49;103633.91;;;4.02;76.56
66945;BME280;53853;51.982;5.928;2023-02-10T09:44:23;103631.22;;;4.03;76.75
66945;BME280;53853;51.982;5.928;2023-02-10T09:47:08;103639.09;;;4.05;76.71
66945;BME280;53853;51.982;5.928;2023-02-10T09:50:06;103630.19;;;4.09;77.13
66945;BME280;53853;51.982;5.928;2023-02-10T09:52:54;103636.06;;;4.20;76.45
66945;BME280;53853;51.982;5.928;2023-02-10T09:55:29;103641.41;;;4.17;76.36
66945;BME280;53853;51.982;5.928;2023-02-10T09:58:03;103645.72;;;4.21;76.69
66945;BME280;53853;51.982;5.928;2023-02-10T10:00:39;103643.00;;;4.24;77.00
66945;BME280;53853;51.982;5.928;2023-02-10T10:03:13;103639.97;;;4.40;76.94
66945;BME280;53853;51.982;5.928;2023-02-10T10:05:52;103650.91;;;4.59;77.05
66945;BME280;53853;51.982;5.928;2023-02-10T10:08:33;103653.06;;;4.76;76.81
66945;BME280;53853;51.982;5.928;2023-02-10T10:11:09;103649.28;;;4.86;76.01
66945;BME280;53853;51.982;5.928;2023-02-10T10:13:44;103645.84;;;4.84;75.70
66945;BME280;53853;51.982;5.928;2023-02-10T10:16:22;103647.47;;;4.88;75.55
66945;BME280;53853;51.982;5.928;2023-02-10T10:19:02;103645.53;;;4.93;75.57
66945;BME280;53853;51.982;5.928;2023-02-10T10:21:42;103640.03;;;5.01;75.45
66945;BME280;53853;51.982;5.928;2023-02-10T10:24:39;103640.59;;;5.12;75.22
66945;BME280;53853;51.982;5.928;2023-02-10T10:27:20;103631.50;;;5.22;75.21
66945;BME280;53853;51.982;5.928;2023-02-10T10:29:56;103639.16;;;5.32;74.79
66945;BME280;53853;51.982;5.928;2023-02-10T10:32:37;103644.22;;;5.39;74.31
66945;BME280;53853;51.982;5.928;2023-02-10T10:35:15;103644.00;;;5.45;74.46
66945;BME280;53853;51.982;5.928;2023-02-10T10:37:45;103644.50;;;5.58;74.69
66945;BME280;53853;51.982;5.928;2023-02-10T10:40:21;103633.47;;;5.72;74.75
66945;BME280;53853;51.982;5.928;2023-02-10T10:42:55;103636.72;;;5.82;73.65
66945;BME280;53853;51.982;5.928;2023-02-10T10:45:30;103629.38;;;5.90;73.73
66945;BME280;53853;51.982;5.928;2023-02-10T10:48:08;103630.19;;;5.92;73.37
66945;BME280;53853;51.982;5.928;2023-02-10T10:50:39;103619.38;;;6.00;73.33
66945;BME280;53853;51.982;5.928;2023-02-10T10:53:15;103616.63;;;6.03;73.27
66945;BME280;53853;51.982;5.928;2023-02-10T10:55:51;103611.13;;;6.09;73.23
66945;BME280;53853;51.982;5.928;2023-02-10T10:58:26;103611.03;;;6.12;73.50
66945;BME280;53853;51.982;5.928;2023-02-10T11:00:58;103611.72;;;6.18;72.96
66945;BME280;53853;51.982;5.928;2023-02-10T11:03:28;103612.38;;;6.24;73.10
66945;BME280;53853;51.982;5.928;2023-02-10T11:06:01;103609.69;;;6.26;72.44
66945;BME280;53853;51.982;5.928;2023-02-10T11:08:35;103619.41;;;6.25;72.69
66945;BME280;53853;51.982;5.928;2023-02-10T11:11:13;103611.22;;;6.33;72.84
66945;BME280;53853;51.982;5.928;2023-02-10T11:13:50;103606.56;;;6.40;72.61
66945;BME280;53853;51.982;5.928;2023-02-10T11:16:22;103610.84;;;6.42;72.53
66945;BME280;53853;51.982;5.928;2023-02-10T11:18:53;103607.16;;;6.48;72.49
66945;BME280;53853;51.982;5.928;2023-02-10T11:21:34;103605.13;;;6.55;72.59
66945;BME280;53853;51.982;5.928;2023-02-10T11:24:13;103584.81;;;6.55;71.77
66945;BME280;53853;51.982;5.928;2023-02-10T11:26:57;103588.09;;;6.62;71.95
66945;BME280;53853;51.982;5.928;2023-02-10T11:29:29;103590.53;;;6.68;71.37
66945;BME280;53853;51.982;5.928;2023-02-10T11:32:00;103577.13;;;6.73;71.49
66945;BME280;53853;51.982;5.928;2023-02-10T11:34:32;103581.31;;;6.78;71.48
66945;BME280;53853;51.982;5.928;2023-02-10T11:37:10;103579.28;;;6.85;70.18
66945;BME280;53853;51.982;5.928;2023-02-10T11:39:44;103583.63;;;6.87;69.82
66945;BME280;53853;51.982;5.928;2023-02-10T11:42:21;103578.25;;;6.89;70.04
66945;BME280;53853;51.982;5.928;2023-02-10T11:44:55;103575.50;;;6.92;69.59
66945;BME280;53853;51.982;5.928;2023-02-10T11:47:26;103577.09;;;6.96;69.74
66945;BME280;53853;51.982;5.928;2023-02-10T11:49:57;103564.53;;;7.01;69.97
66945;BME280;53853;51.982;5.928;2023-02-10T11:52:28;103563.25;;;7.12;69.16
66945;BME280;53853;51.982;5.928;2023-02-10T11:55:00;103557.63;;;7.19;68.68
66945;BME280;53853;51.982;5.928;2023-02-10T11:57:44;103556.50;;;7.27;68.92
66945;BME280;53853;51.982;5.928;2023-02-10T12:00:35;103547.34;;;7.34;67.44
66945;BME280;53853;51.982;5.928;2023-02-10T12:03:27;103540.13;;;7.37;67.44
66945;BME280;53853;51.982;5.928;2023-02-10T12:06:04;103539.81;;;7.45;67.55
66945;BME280;53853;51.982;5.928;2023-02-10T12:08:41;103546.47;;;7.55;67.52
66945;BME280;53853;51.982;5.928;2023-02-10T12:11:17;103550.66;;;7.61;67.55
66945;BME280;53853;51.982;5.928;2023-02-10T12:14:01;103544.31;;;7.65;66.95
66945;BME280;53853;51.982;5.928;2023-02-10T12:16:39;103549.41;;;7.70;67.11
66945;BME280;53853;51.982;5.928;2023-02-10T12:19:21;103545.63;;;7.75;66.13
66945;BME280;53853;51.982;5.928;2023-02-10T12:22:04;103543.59;;;7.82;65.24
66945;BME280;53853;51.982;5.928;2023-02-10T12:24:46;103549.69;;;7.84;64.69
66945;BME280;53853;51.982;5.928;2023-02-10T12:27:27;103546.00;;;7.88;65.27
66945;BME280;53853;51.982;5.928;2023-02-10T12:30:09;103540.63;;;7.90;65.20
66945;BME280;53853;51.982;5.928;2023-02-10T12:32:50;103538.56;;;7.96;65.39
66945;BME280;53853;51.982;5.928;2023-02-10T12:35:32;103539.94;;;8.05;65.09
66945;BME280;53853;51.982;5.928;2023-02-10T12:38:21;103544.84;;;8.14;64.50
66945;BME280;53853;51.982;5.928;2023-02-10T12:41:04;103544.53;;;8.22;64.45
66945;BME280;53853;51.982;5.928;2023-02-10T12:43:50;103534.63;;;8.26;63.26
66945;BME280;53853;51.982;5.928;2023-02-10T12:46:33;103519.31;;;8.31;63.24
66945;BME280;53853;51.982;5.928;2023-02-10T12:49:15;103522.53;;;8.39;63.58
66945;BME280;53853;51.982;5.928;2023-02-10T12:51:55;103518.75;;;8.45;62.62
66945;BME280;53853;51.982;5.928;2023-02-10T12:54:33;103520.47;;;8.46;61.29
66945;BME280;53853;51.982;5.928;2023-02-10T12:57:06;103507.06;;;8.49;61.61
66945;BME280;53853;51.982;5.928;2023-02-10T12:59:44;103517.41;;;8.55;61.73
66945;BME280;53853;51.982;5.928;2023-02-10T13:02:20;103512.53;;;8.65;60.90
66945;BME280;53853;51.982;5.928;2023-02-10T13:04:54;103501.81;;;8.66;61.04
66945;BME280;53853;51.982;5.928;2023-02-10T13:07:31;103492.66;;;8.72;59.87
66945;BME280;53853;51.982;5.928;2023-02-10T13:10:16;103498.72;;;8.76;59.84
66945;BME280;53853;51.982;5.928;2023-02-10T13:12:48;103501.09;;;8.82;59.53
66945;BME280;53853;51.982;5.928;2023-02-10T13:15:26;103496.28;;;8.90;58.78
66945;BME280;53853;51.982;5.928;2023-02-10T13:18:00;103498.94;;;8.90;58.05
66945;BME280;53853;51.982;5.928;2023-02-10T13:20:39;103492.66;;;8.91;58.59
66945;BME280;53853;51.982;5.928;2023-02-10T13:23:18;103493.09;;;9.01;58.62
66945;BME280;53853;51.982;5.928;2023-02-10T13:26:04;103492.78;;;9.07;58.78
66945;BME280;53853;51.982;5.928;2023-02-10T13:28:47;103493.53;;;9.11;57.86
66945;BME280;53853;51.982;5.928;2023-02-10T13:31:36;103490.03;;;9.09;57.60
66945;BME280;53853;51.982;5.928;2023-02-10T13:34:20;103489.03;;;9.11;57.38
66945;BME280;53853;51.982;5.928;2023-02-10T13:36:57;103489.75;;;9.15;56.84
66945;BME280;53853;51.982;5.928;2023-02-10T13:39:28;103482.72;;;9.14;57.13